Glass Lake, New York
Current Conditions -  °F | °C
As of 1:51 PM on Friday 31 Oct 2014 (Local Time) from KALB Reporting Station
Broken Clouds Broken Clouds  
Wind Chill: 52°   Ceiling: 26000
Heat Index: 52°   Visibility: 10mi
Dew Point: 33°   Wind: 5mph
Humidity: 49%   Direction: 10°N
Pressure: 29.98"   Gusts: NA
Location:  42.6497°N, 73.5273°W
Report Text: KALB 311751Z 01004KT 10SM FEW037 FEW045 BKN260 11/01 A2998 RMK AO2 SLP155 T01110006 10111 20000 58019
Loading
Personal Weather Stations






























Interactive Weather Map
Tropical Storm Tracking
New forecast layout! Learn more

10-Day Weather Forecast

Advertisements
Track Severe Weather on mobile